Time;durP1;ratioP1;P1;durP2;ratioP2;P2;SDS_P1;SDS_P2;PMS_P1;PMS_P2;Temp;Humidity;BMP_temperature;BMP_pressure;BME280_temperature;BME280_humidity;BME280_pressure;Samples;Min_cycle;Max_cycle;Signal;HPM_P1;HPM_P2
2022/10/14 00:01:04;;;;;;;26.83;15.00;;;15.10;99.90;;;;;;4970815;28;20058;-78
2022/10/14 00:03:33;;;;;;;22.92;13.88;;;15.00;99.90;;;;;;4972003;28;20139;-79
2022/10/14 00:06:02;;;;;;;25.65;14.43;;;15.00;99.90;;;;;;4956642;28;20428;-78
2022/10/14 00:08:30;;;;;;;22.48;14.60;;;15.00;99.90;;;;;;4970915;28;20049;-78
2022/10/14 00:11:04;;;;;;;23.20;14.25;;;15.00;99.90;;;;;;4957635;28;20054;-78
2022/10/14 00:13:31;;;;;;;22.52;14.15;;;15.00;99.90;;;;;;4952825;29;20043;-78
2022/10/14 00:15:58;;;;;;;22.80;14.52;;;15.00;99.90;;;;;;4966042;28;20046;-79
2022/10/14 00:18:28;;;;;;;26.90;14.30;;;15.10;99.90;;;;;;4968613;28;20058;-78
2022/10/14 00:20:55;;;;;;;21.95;14.30;;;15.00;99.90;;;;;;4962513;28;20039;-78
2022/10/14 00:23:22;;;;;;;25.65;13.85;;;15.00;99.90;;;;;;4997410;23;20050;-83
2022/10/14 00:25:50;;;;;;;23.73;13.77;;;15.00;99.90;;;;;;4991518;28;20046;-84
2022/10/14 00:28:17;;;;;;;23.88;13.48;;;15.00;99.90;;;;;;4992688;28;20113;-83
2022/10/14 00:30:53;;;;;;;24.20;14.35;;;15.00;99.90;;;;;;4975329;28;20102;-83
2022/10/14 00:33:20;;;;;;;24.20;14.63;;;15.00;99.90;;;;;;4988377;28;20054;-83
2022/10/14 00:35:54;;;;;;;26.48;14.35;;;15.00;99.90;;;;;;5002722;28;20043;-83
2022/10/14 00:38:21;;;;;;;30.15;14.77;;;15.00;99.90;;;;;;4967778;28;20050;-82
2022/10/14 00:40:48;;;;;;;31.10;15.25;;;15.00;99.90;;;;;;4991631;28;20046;-82
2022/10/14 00:43:16;;;;;;;27.42;14.52;;;15.00;99.90;;;;;;4984566;28;20078;-83
2022/10/14 00:45:43;;;;;;;25.10;15.95;;;15.00;99.90;;;;;;4984119;28;20053;-83
2022/10/14 00:48:11;;;;;;;36.55;16.02;;;15.00;99.90;;;;;;4991109;28;20137;-83
2022/10/14 00:50:39;;;;;;;24.70;14.77;;;15.10;99.90;;;;;;4973938;28;20050;-83
2022/10/14 00:53:06;;;;;;;29.08;15.98;;;15.10;99.90;;;;;;4990426;28;20422;-83
2022/10/14 00:55:33;;;;;;;28.92;16.30;;;15.00;99.90;;;;;;4972734;28;20038;-83
2022/10/14 00:58:02;;;;;;;26.60;16.40;;;15.00;99.90;;;;;;4972838;28;20050;-82
2022/10/14 01:00:31;;;;;;;25.13;15.40;;;15.00;99.90;;;;;;4991322;28;20042;-83
2022/10/14 01:02:58;;;;;;;25.02;16.58;;;15.00;99.90;;;;;;4994001;28;20042;-84
2022/10/14 01:05:30;;;;;;;27.98;16.15;;;15.00;99.90;;;;;;4991028;28;20050;-84
2022/10/14 01:08:04;;;;;;;26.77;16.77;;;15.00;99.90;;;;;;4987689;28;20060;-83
2022/10/14 01:10:38;;;;;;;24.75;16.13;;;15.10;99.90;;;;;;4990600;28;20046;-83
2022/10/14 01:13:15;;;;;;;29.75;17.42;;;15.00;99.90;;;;;;4978016;28;20108;-83
2022/10/14 01:15:51;;;;;;;30.48;17.25;;;15.10;99.90;;;;;;4973554;28;20062;-84
2022/10/14 01:18:24;;;;;;;24.70;16.42;;;15.10;99.90;;;;;;4990484;28;20046;-83
2022/10/14 01:21:03;;;;;;;29.95;15.73;;;15.10;99.90;;;;;;4993847;28;20042;-84
2022/10/14 01:24:07;;;;;;;25.35;15.88;;;15.10;99.90;;;;;;4979131;28;20039;-83
2022/10/14 01:27:10;;;;;;;26.00;15.82;;;15.10;99.90;;;;;;4980529;28;20050;-84
2022/10/14 01:30:07;;;;;;;30.17;16.70;;;15.10;99.90;;;;;;4962348;28;20062;-84
2022/10/14 01:32:38;;;;;;;24.25;15.90;;;15.10;99.90;;;;;;4959103;28;20137;-84
2022/10/14 01:35:11;;;;;;;23.17;16.25;;;15.10;99.90;;;;;;4974745;28;20045;-83
2022/10/14 01:37:41;;;;;;;24.58;15.90;;;15.10;99.90;;;;;;4972620;28;20050;-83
2022/10/14 01:40:12;;;;;;;23.97;17.00;;;15.10;99.90;;;;;;4973004;28;20096;-83
2022/10/14 01:42:41;;;;;;;25.58;16.35;;;15.00;99.90;;;;;;4971715;28;20049;-84
2022/10/14 01:45:13;;;;;;;25.73;16.45;;;15.10;99.90;;;;;;4989759;28;20044;-84
2022/10/14 01:47:41;;;;;;;26.45;15.23;;;15.10;99.90;;;;;;4989340;28;20046;-84
2022/10/14 01:50:11;;;;;;;26.85;16.73;;;15.10;99.90;;;;;;4977374;28;20526;-83
2022/10/14 01:52:41;;;;;;;26.02;16.13;;;15.10;99.90;;;;;;4989103;28;20042;-83
2022/10/14 01:55:11;;;;;;;23.60;16.52;;;15.10;99.90;;;;;;4988148;28;20049;-83
2022/10/14 01:57:40;;;;;;;24.15;14.75;;;15.10;99.90;;;;;;4989909;28;20137;-84
2022/10/14 02:00:10;;;;;;;19.65;14.50;;;15.10;99.90;;;;;;4987006;28;20049;-83
2022/10/14 02:02:43;;;;;;;22.65;14.45;;;15.10;99.90;;;;;;4978010;28;20074;-83
2022/10/14 02:05:15;;;;;;;21.38;13.77;;;15.10;99.90;;;;;;4988094;28;20054;-84
2022/10/14 02:07:45;;;;;;;21.10;14.80;;;15.20;99.90;;;;;;4989750;28;20081;-84
2022/10/14 02:10:20;;;;;;;21.20;14.15;;;15.10;99.90;;;;;;5004762;28;20109;-84
2022/10/14 02:12:55;;;;;;;21.17;15.10;;;15.10;99.90;;;;;;4971304;28;20050;-83
2022/10/14 02:15:31;;;;;;;20.73;14.57;;;15.10;99.90;;;;;;4971511;28;20056;-84
2022/10/14 02:18:09;;;;;;;23.60;15.57;;;15.10;99.90;;;;;;4972299;28;20057;-84
2022/10/14 02:20:40;;;;;;;22.55;16.05;;;15.10;99.90;;;;;;4989763;28;20518;-83
2022/10/14 02:23:11;;;;;;;19.77;14.90;;;15.10;99.90;;;;;;4987135;28;20043;-84
2022/10/14 02:25:38;;;;;;;;;;;15.10;99.90;;;;;;4975554;28;20046;-84
2022/10/14 02:28:07;;;;;;;19.77;13.82;;;15.10;99.90;;;;;;4989511;28;19979;-84
2022/10/14 02:30:41;;;;;;;26.20;15.35;;;15.10;99.90;;;;;;4972213;28;20148;-83
2022/10/14 02:33:08;;;;;;;20.30;15.23;;;15.10;99.90;;;;;;4987840;28;20043;-83
2022/10/14 02:35:37;;;;;;;18.65;14.18;;;15.10;99.90;;;;;;4987804;28;20688;-84
2022/10/14 02:38:05;;;;;;;22.33;14.70;;;15.10;99.90;;;;;;4988065;28;20526;-83
2022/10/14 02:40:37;;;;;;;20.00;14.27;;;15.10;99.90;;;;;;4988238;28;20129;-84
2022/10/14 02:43:06;;;;;;;23.05;15.65;;;15.10;99.90;;;;;;4995901;28;20038;-83
2022/10/14 02:45:34;;;;;;;22.23;16.08;;;15.10;99.90;;;;;;4991753;28;20043;-83
2022/10/14 02:48:02;;;;;;;26.50;17.67;;;15.10;99.90;;;;;;4991918;28;20518;-83
2022/10/14 02:50:29;;;;;;;28.65;18.38;;;15.10;99.90;;;;;;5007132;28;20146;-83
2022/10/14 02:52:56;;;;;;;27.52;17.13;;;15.10;99.90;;;;;;4993566;28;20074;-84
2022/10/14 02:55:23;;;;;;;27.45;17.88;;;15.10;99.90;;;;;;4977251;28;20399;-84
2022/10/14 02:57:51;;;;;;;26.90;18.25;;;15.10;99.90;;;;;;4991509;28;20050;-84
2022/10/14 03:00:19;;;;;;;30.38;19.23;;;15.20;99.90;;;;;;5004022;28;20042;-83
2022/10/14 03:02:45;;;;;;;33.58;20.95;;;15.10;99.90;;;;;;4977626;28;20042;-84
2022/10/14 03:05:16;;;;;;;31.88;21.00;;;15.10;99.90;;;;;;4974696;28;20061;-83
2022/10/14 03:07:43;;;;;;;29.60;19.90;;;15.10;99.90;;;;;;4975223;28;20061;-83
2022/10/14 03:10:13;;;;;;;29.42;20.38;;;15.10;99.90;;;;;;4975175;28;20051;-83
2022/10/14 03:12:40;;;;;;;30.27;21.30;;;15.10;99.90;;;;;;4974509;28;20129;-84
2022/10/14 03:15:14;;;;;;;33.95;21.50;;;15.10;99.90;;;;;;4974599;28;20057;-83
2022/10/14 03:17:40;;;;;;;31.42;20.45;;;15.10;99.90;;;;;;4992840;28;20054;-84
2022/10/14 03:20:08;;;;;;;29.55;20.17;;;15.20;99.90;;;;;;4983478;28;20124;-84
2022/10/14 03:22:45;;;;;;;31.90;20.70;;;15.10;99.90;;;;;;4994030;28;20046;-84
2022/10/14 03:25:12;;;;;;;33.95;20.25;;;15.10;99.90;;;;;;4974911;28;20074;-84
2022/10/14 03:27:52;;;;;;;29.05;19.77;;;15.20;99.90;;;;;;4974126;28;20141;-83
2022/10/14 03:30:22;;;;;;;30.58;19.02;;;15.10;99.90;;;;;;4984100;28;20630;-84
2022/10/14 03:32:58;;;;;;;27.42;18.10;;;15.20;99.90;;;;;;4975980;28;20050;-83
2022/10/14 03:35:48;;;;;;;30.95;20.27;;;15.20;99.90;;;;;;4974299;28;20491;-84
2022/10/14 03:38:20;;;;;;;28.90;19.42;;;15.10;99.90;;;;;;4979681;28;20057;-83
2022/10/14 03:40:48;;;;;;;26.98;18.40;;;15.20;99.90;;;;;;4994075;28;20060;-83
2022/10/14 03:43:16;;;;;;;27.25;18.27;;;15.10;99.90;;;;;;4974658;28;20594;-83
2022/10/14 03:45:52;;;;;;;26.38;18.00;;;15.10;99.90;;;;;;4970882;28;20133;-83
2022/10/14 03:48:21;;;;;;;30.98;19.23;;;15.10;99.90;;;;;;4974096;28;20042;-83
2022/10/14 03:50:48;;;;;;;25.15;17.75;;;15.20;99.90;;;;;;4974309;28;20082;-83
2022/10/14 03:53:19;;;;;;;27.17;18.58;;;15.20;99.90;;;;;;4973470;28;20047;-84
2022/10/14 03:55:46;;;;;;;26.27;17.95;;;15.20;99.90;;;;;;4974057;28;20053;-83
2022/10/14 03:58:14;;;;;;;29.35;17.52;;;15.20;99.90;;;;;;4991699;28;20054;-83
2022/10/14 04:00:47;;;;;;;25.85;17.40;;;15.20;99.90;;;;;;4974335;28;20050;-83
2022/10/14 04:03:26;;;;;;;26.42;17.98;;;15.20;99.90;;;;;;4969003;28;20053;-83
2022/10/14 04:05:55;;;;;;;25.95;17.38;;;15.10;99.90;;;;;;4995114;28;20043;-83
2022/10/14 04:08:25;;;;;;;26.65;17.33;;;15.10;99.90;;;;;;4990296;28;20050;-83
2022/10/14 04:10:58;;;;;;;29.05;18.38;;;15.10;99.90;;;;;;4989414;28;20050;-83
2022/10/14 04:13:27;;;;;;;25.70;17.35;;;15.10;99.90;;;;;;4973862;28;20414;-83
2022/10/14 04:15:54;;;;;;;26.55;17.65;;;15.10;99.90;;;;;;4973447;28;20047;-83
2022/10/14 04:18:33;;;;;;;23.77;16.33;;;15.20;99.90;;;;;;5001645;28;20054;-83
2022/10/14 04:21:02;;;;;;;25.00;16.95;;;15.20;99.90;;;;;;4990758;28;20050;-83
2022/10/14 04:23:32;;;;;;;30.35;18.63;;;15.20;99.90;;;;;;4973707;28;20052;-83
2022/10/14 04:26:06;;;;;;;23.90;17.02;;;15.20;99.90;;;;;;4973627;28;20042;-83
2022/10/14 04:28:34;;;;;;;24.10;17.42;;;15.10;99.90;;;;;;5001650;28;20084;-83
2022/10/14 04:31:09;;;;;;;26.13;17.05;;;15.20;99.90;;;;;;4990139;28;20053;-83
2022/10/14 04:33:49;;;;;;;23.90;16.98;;;15.20;99.90;;;;;;4973630;28;20050;-83
2022/10/14 04:36:22;;;;;;;24.83;15.95;;;15.20;99.90;;;;;;4988515;28;20046;-84
2022/10/14 04:38:50;;;;;;;24.80;17.52;;;15.20;99.90;;;;;;5002273;28;20471;-83
2022/10/14 04:41:18;;;;;;;22.10;16.15;;;15.20;99.90;;;;;;4988646;28;20046;-83
2022/10/14 04:43:48;;;;;;;23.98;16.38;;;15.20;99.90;;;;;;4973314;28;20141;-83
2022/10/14 04:46:25;;;;;;;22.15;15.77;;;15.10;99.90;;;;;;4973444;28;20140;-83
2022/10/14 04:48:52;;;;;;;23.60;15.90;;;15.10;99.90;;;;;;4973311;28;20583;-83
2022/10/14 04:51:21;;;;;;;23.25;15.65;;;15.20;99.90;;;;;;4972645;28;20046;-83
2022/10/14 04:54:02;;;;;;;25.45;16.80;;;15.10;99.90;;;;;;4976397;28;20046;-83
2022/10/14 04:56:40;;;;;;;25.08;16.10;;;15.20;99.90;;;;;;4972627;28;20388;-83
2022/10/14 04:59:07;;;;;;;22.63;15.50;;;15.20;99.90;;;;;;4972968;28;20058;-83
2022/10/14 05:01:53;;;;;;;27.83;16.20;;;15.20;99.90;;;;;;4972489;28;20517;-83
2022/10/14 05:04:21;;;;;;;24.13;16.50;;;15.20;99.90;;;;;;4992309;28;20048;-83
2022/10/14 05:06:50;;;;;;;24.30;16.80;;;15.20;99.90;;;;;;4972470;28;20042;-83
2022/10/14 05:09:19;;;;;;;27.73;18.05;;;15.20;99.90;;;;;;4989455;28;20050;-83
2022/10/14 05:11:47;;;;;;;22.95;16.33;;;15.20;99.90;;;;;;4989050;28;20157;-83
2022/10/14 05:14:18;;;;;;;26.67;17.00;;;15.20;99.90;;;;;;4986800;28;20049;-83
2022/10/14 05:16:48;;;;;;;25.45;17.20;;;15.20;99.90;;;;;;4972179;28;20042;-83
2022/10/14 05:19:21;;;;;;;23.52;16.48;;;15.20;99.90;;;;;;4975795;28;20078;-83
2022/10/14 05:21:50;;;;;;;21.02;15.02;;;15.10;99.90;;;;;;4973297;28;20101;-83
2022/10/14 05:24:26;;;;;;;21.58;14.23;;;15.20;99.90;;;;;;4987447;28;20100;-83
2022/10/14 05:26:54;;;;;;;19.63;13.85;;;15.20;99.90;;;;;;4977710;28;20050;-83
2022/10/14 05:29:21;;;;;;;18.83;13.32;;;15.20;99.90;;;;;;4967869;28;20050;-83
2022/10/14 05:31:50;;;;;;;18.30;13.13;;;15.20;99.90;;;;;;4972718;28;20046;-83
2022/10/14 05:34:24;;;;;;;21.05;13.35;;;15.20;99.90;;;;;;4990556;28;20046;-83
2022/10/14 05:36:51;;;;;;;19.25;12.75;;;15.20;99.90;;;;;;4973165;28;20054;-83
2022/10/14 05:39:21;;;;;;;19.52;13.45;;;15.10;99.90;;;;;;4984057;28;20042;-83
2022/10/14 05:41:49;;;;;;;18.13;13.38;;;15.20;99.90;;;;;;4991968;28;20145;-83
2022/10/14 05:44:20;;;;;;;17.17;11.98;;;15.20;99.90;;;;;;4953421;28;20050;-83
2022/10/14 05:46:48;;;;;;;16.13;11.60;;;15.20;99.90;;;;;;4964998;28;20129;-83
2022/10/14 05:49:15;;;;;;;18.52;12.60;;;15.10;99.90;;;;;;4982921;28;20057;-83
2022/10/14 05:51:43;;;;;;;16.98;12.18;;;15.20;99.90;;;;;;4971370;28;20073;-83
2022/10/14 05:54:17;;;;;;;19.77;11.63;;;15.20;99.90;;;;;;4988232;28;20140;-84
2022/10/14 05:56:44;;;;;;;15.75;11.93;;;15.20;99.90;;;;;;4969065;28;20566;-91
2022/10/14 05:59:13;;;;;;;14.68;11.05;;;15.20;99.90;;;;;;4971241;28;20073;-88
2022/10/14 06:01:40;;;;;;;13.57;10.85;;;15.20;99.90;;;;;;4985446;28;20052;-90
2022/10/14 06:04:07;;;;;;;17.35;10.90;;;15.20;99.90;;;;;;4970123;28;20044;-90
2022/10/14 06:06:34;;;;;;;17.60;11.60;;;15.20;99.90;;;;;;4968085;28;20084;-90
2022/10/14 06:09:01;;;;;;;16.33;11.02;;;15.20;99.90;;;;;;4980225;28;20149;-90
2022/10/14 06:11:28;;;;;;;18.30;11.38;;;15.20;99.90;;;;;;4970007;28;20562;-89
2022/10/14 06:13:55;;;;;;;15.52;11.43;;;15.20;99.90;;;;;;4966945;28;20050;-90
2022/10/14 06:16:24;;;;;;;15.88;11.30;;;15.20;99.90;;;;;;4963737;28;20043;-90
2022/10/14 06:18:51;;;;;;;17.08;10.85;;;15.30;99.90;;;;;;4973586;28;20124;-90
2022/10/14 06:21:18;;;;;;;15.07;11.18;;;15.30;99.90;;;;;;4971617;28;20121;-90
2022/10/14 06:23:44;;;;;;;16.35;11.65;;;15.30;99.90;;;;;;5047054;23;20165;-87
2022/10/14 06:26:11;;;;;;;17.15;12.73;;;15.30;99.90;;;;;;4978234;28;20048;-86
2022/10/14 06:28:38;;;;;;;16.88;11.55;;;15.30;99.90;;;;;;4979862;28;20077;-87
2022/10/14 06:31:06;;;;;;;15.00;11.55;;;15.30;99.90;;;;;;4977420;28;20053;-87
2022/10/14 06:33:34;;;;;;;17.00;11.52;;;15.30;99.90;;;;;;4971824;28;20134;-86
2022/10/14 06:36:02;;;;;;;14.20;10.57;;;15.30;99.90;;;;;;4958614;28;20563;-86
2022/10/14 06:38:29;;;;;;;14.98;10.50;;;15.30;99.90;;;;;;4968401;28;20513;-87
2022/10/14 06:40:56;;;;;;;15.43;10.40;;;15.30;99.90;;;;;;4959129;28;20047;-87
2022/10/14 06:43:23;;;;;;;15.68;10.93;;;15.30;99.90;;;;;;4953572;28;20058;-88
2022/10/14 06:45:51;;;;;;;13.15;9.45;;;15.40;99.90;;;;;;4963495;28;20050;-87
2022/10/14 06:48:18;;;;;;;20.27;10.00;;;15.40;99.90;;;;;;4959516;28;20047;-86
2022/10/14 06:50:47;;;;;;;12.80;9.77;;;15.40;99.90;;;;;;4956830;28;20058;-87
2022/10/14 06:53:14;;;;;;;15.15;9.48;;;15.40;99.90;;;;;;4963106;28;20574;-88
2022/10/14 06:55:41;;;;;;;17.23;9.40;;;15.40;99.90;;;;;;4962614;28;20062;-87
2022/10/14 06:58:07;;;;;;;14.80;9.32;;;15.40;99.90;;;;;;4957795;28;20050;-91
2022/10/14 07:00:36;;;;;;;16.25;9.07;;;15.40;99.90;;;;;;4965525;28;20049;-87
2022/10/14 07:03:08;;;;;;;13.23;9.88;;;15.40;99.90;;;;;;4967661;28;20046;-91
2022/10/14 07:05:36;;;;;;;14.82;8.80;;;15.40;99.90;;;;;;4945507;28;20133;-91
2022/10/14 07:08:04;;;;;;;10.90;8.60;;;15.40;99.90;;;;;;4961649;28;20051;-91
2022/10/14 07:10:31;;;;;;;13.68;8.48;;;15.40;99.90;;;;;;4962974;28;20051;-91
2022/10/14 07:12:58;;;;;;;10.57;8.02;;;15.40;99.90;;;;;;4969790;28;20129;-91
2022/10/14 07:15:25;;;;;;;14.32;7.78;;;15.50;99.90;;;;;;4965753;28;20038;-90
2022/10/14 07:17:52;;;;;;;11.60;7.97;;;15.50;99.90;;;;;;4969066;28;20068;-90
2022/10/14 07:20:19;;;;;;;9.43;7.35;;;15.50;99.90;;;;;;4966413;28;20053;-92
2022/10/14 07:22:46;;;;;;;10.73;7.45;;;15.50;99.90;;;;;;4968445;28;20047;-91
2022/10/14 07:25:14;;;;;;;11.93;8.05;;;15.50;99.90;;;;;;4974684;28;20129;-92
2022/10/14 07:27:41;;;;;;;10.55;7.18;;;15.50;99.90;;;;;;4971589;28;20057;-92
2022/10/14 07:30:09;;;;;;;11.43;7.90;;;15.50;99.90;;;;;;4971943;28;20046;-91
2022/10/14 07:32:36;;;;;;;13.13;7.68;;;15.60;99.90;;;;;;4966579;28;20054;-89
2022/10/14 07:35:04;;;;;;;9.95;6.80;;;15.60;99.90;;;;;;4970372;28;20138;-87
2022/10/14 07:37:31;;;;;;;12.38;7.10;;;15.60;99.90;;;;;;4972635;28;20057;-86
2022/10/14 07:39:58;;;;;;;9.52;6.57;;;15.60;99.90;;;;;;4963789;28;20036;-89
2022/10/14 07:42:26;;;;;;;7.47;5.65;;;15.60;99.90;;;;;;4971745;28;20058;-90
2022/10/14 07:44:53;;;;;;;8.90;5.68;;;15.60;99.90;;;;;;4966967;28;20533;-89
2022/10/14 07:47:20;;;;;;;7.35;5.60;;;15.60;99.90;;;;;;4965794;28;20044;-90
2022/10/14 07:49:47;;;;;;;9.07;5.80;;;15.60;99.90;;;;;;4974102;28;20073;-91
2022/10/14 07:52:18;;;;;;;8.65;5.35;;;15.60;99.90;;;;;;4972541;28;20130;-89
2022/10/14 07:54:45;;;;;;;11.93;5.90;;;15.60;99.90;;;;;;4971797;28;20066;-92
2022/10/14 07:57:12;;;;;;;9.60;5.20;;;15.60;99.90;;;;;;4967700;28;20039;-92
2022/10/14 07:59:41;;;;;;;8.30;4.95;;;15.60;99.90;;;;;;4960310;28;20475;-91
2022/10/14 08:02:08;;;;;;;7.88;4.78;;;15.60;99.90;;;;;;4965496;28;20050;-91
2022/10/14 08:04:35;;;;;;;7.45;4.38;;;15.60;99.90;;;;;;4968842;28;20043;-88
2022/10/14 08:07:02;;;;;;;6.25;4.00;;;15.60;99.90;;;;;;4937885;28;20415;-88
2022/10/14 08:09:29;;;;;;;6.75;4.35;;;15.60;99.90;;;;;;4958274;28;20045;-89
2022/10/14 08:11:57;;;;;;;6.38;4.30;;;15.70;99.90;;;;;;4964619;28;20121;-90
2022/10/14 08:14:24;;;;;;;7.25;3.90;;;15.70;99.90;;;;;;4957059;28;20496;-92
2022/10/14 08:16:52;;;;;;;7.20;4.50;;;15.70;99.90;;;;;;4961707;28;20043;-89
2022/10/14 08:19:19;;;;;;;7.00;3.88;;;15.70;99.90;;;;;;4963352;28;20043;-90
2022/10/14 08:21:46;;;;;;;7.38;4.30;;;15.70;99.90;;;;;;4963326;28;20496;-90
2022/10/14 08:24:13;;;;;;;5.80;3.70;;;15.80;99.90;;;;;;4958877;28;20051;-89
2022/10/14 08:26:49;;;;;;;8.95;4.05;;;15.70;99.90;;;;;;4943450;28;20423;-89
2022/10/14 08:29:16;;;;;;;6.00;3.92;;;15.80;99.90;;;;;;4958641;28;20038;-89
2022/10/14 08:31:43;;;;;;;4.93;3.42;;;15.80;99.90;;;;;;4956072;28;20054;-89
2022/10/14 08:34:11;;;;;;;5.78;3.13;;;15.80;99.90;;;;;;4978317;28;20055;-90
2022/10/14 08:36:38;;;;;;;4.55;3.25;;;15.80;99.90;;;;;;4970895;28;20109;-89
2022/10/14 08:39:05;;;;;;;6.25;3.20;;;15.80;99.90;;;;;;4969885;28;20046;-89
2022/10/14 08:41:57;;;;;;;9.50;3.10;;;15.80;99.90;;;;;;4974294;28;20062;-89
2022/10/14 08:44:26;;;;;;;5.70;2.67;;;15.80;99.90;;;;;;4962646;28;20053;-91
2022/10/14 08:46:58;;;;;;;5.03;2.63;;;16.00;99.90;;;;;;4972709;28;20128;-91
2022/10/14 08:49:30;;;;;;;4.57;2.92;;;15.80;99.90;;;;;;4971711;28;20136;-91
2022/10/14 08:52:01;;;;;;;6.53;3.10;;;15.80;99.90;;;;;;4961122;28;20137;-90
2022/10/14 08:54:35;;;;;;;4.68;2.97;;;15.90;99.90;;;;;;4962343;28;20086;-91
2022/10/14 08:57:03;;;;;;;4.57;2.83;;;15.80;99.90;;;;;;4964884;28;20530;-91
2022/10/14 08:59:30;;;;;;;5.15;2.80;;;15.90;99.90;;;;;;4975291;28;20066;-85
2022/10/14 09:02:00;;;;;;;5.53;2.80;;;15.90;99.90;;;;;;4974395;28;20046;-87
2022/10/14 09:04:29;;;;;;;4.88;3.08;;;15.90;99.90;;;;;;4971156;28;20406;-84
2022/10/14 09:06:56;;;;;;;6.57;2.67;;;15.90;99.90;;;;;;4969982;28;20042;-87
2022/10/14 09:09:26;;;;;;;7.40;2.83;;;16.00;99.90;;;;;;4964749;28;20051;-86
2022/10/14 09:11:57;;;;;;;7.18;2.85;;;16.00;99.90;;;;;;4967541;28;20054;-90
2022/10/14 09:14:27;;;;;;;6.73;3.00;;;16.00;99.90;;;;;;4964897;28;20050;-91
2022/10/14 09:16:57;;;;;;;3.60;2.65;;;16.00;99.90;;;;;;4953149;28;20050;-92
2022/10/14 09:19:31;;;;;;;5.25;2.85;;;16.00;99.90;;;;;;4952692;28;20467;-90
2022/10/14 09:21:59;;;;;;;5.22;2.97;;;16.00;99.90;;;;;;4968503;28;20415;-90
2022/10/14 09:24:28;;;;;;;4.85;3.25;;;16.00;99.90;;;;;;4967643;28;20076;-91
2022/10/14 09:26:58;;;;;;;6.30;3.40;;;16.10;99.90;;;;;;4960275;28;20125;-91
2022/10/14 09:29:27;;;;;;;8.27;3.35;;;16.10;99.90;;;;;;4965172;28;20050;-92
2022/10/14 09:31:56;;;;;;;6.13;4.10;;;16.10;99.90;;;;;;4970520;28;20627;-89
2022/10/14 09:34:31;;;;;;;5.45;3.20;;;16.10;99.90;;;;;;4969732;28;20057;-89
2022/10/14 09:37:04;;;;;;;4.25;2.40;;;16.10;99.90;;;;;;4977643;28;20070;-89
2022/10/14 09:39:33;;;;;;;6.50;2.80;;;16.10;99.90;;;;;;4969458;28;20054;-89
2022/10/14 09:42:01;;;;;;;5.18;2.47;;;16.10;99.90;;;;;;4971020;28;20077;-89
2022/10/14 09:44:28;;;;;;;4.53;2.92;;;16.10;99.90;;;;;;4961669;28;20397;-89
2022/10/14 09:46:57;;;;;;;4.90;2.53;;;16.10;99.90;;;;;;4956927;28;20039;-89
2022/10/14 09:49:37;;;;;;;3.75;2.35;;;16.20;99.90;;;;;;4966347;28;20042;-89
2022/10/14 09:52:05;;;;;;;5.38;2.30;;;16.20;99.90;;;;;;4972237;28;20073;-89
2022/10/14 09:54:32;;;;;;;5.97;2.53;;;16.20;99.90;;;;;;4971857;28;20058;-89
2022/10/14 09:57:04;;;;;;;4.75;2.65;;;16.20;99.90;;;;;;4975326;28;20034;-83
2022/10/14 09:59:31;;;;;;;5.93;2.60;;;16.20;99.90;;;;;;4994562;28;20031;-88
2022/10/14 10:02:01;;;;;;;4.95;2.70;;;16.30;99.90;;;;;;4999398;28;20078;-88
2022/10/14 10:04:40;;;;;;;4.45;2.63;;;16.30;99.90;;;;;;4995690;28;20023;-89
2022/10/14 10:07:29;;;;;;;3.92;2.40;;;16.50;99.90;;;;;;4979991;28;20081;-88
2022/10/14 10:09:57;;;;;;;4.82;2.50;;;16.30;99.90;;;;;;4979728;28;20050;-88
2022/10/14 10:12:27;;;;;;;5.85;2.30;;;16.30;99.90;;;;;;4980376;28;20050;-88
2022/10/14 10:14:57;;;;;;;3.22;2.22;;;16.40;99.90;;;;;;4979621;28;20049;-88
2022/10/14 10:17:26;;;;;;;6.57;2.60;;;16.40;99.90;;;;;;4971434;28;20046;-88
2022/10/14 10:20:17;;;;;;;4.63;2.90;;;16.40;99.90;;;;;;4979221;28;20046;-89
2022/10/14 10:22:44;;;;;;;;;;;16.40;99.90;;;;;;4971802;28;20043;-89
2022/10/14 10:25:25;;;;;;;5.57;2.90;;;16.40;99.90;;;;;;4971679;28;20020;-88
2022/10/14 10:27:53;;;;;;;4.28;2.20;;;16.60;99.90;;;;;;4967102;28;20121;-88
2022/10/14 10:30:26;;;;;;;3.92;2.53;;;16.40;99.90;;;;;;4963359;28;20583;-88
2022/10/14 10:33:09;;;;;;;5.07;2.75;;;16.50;99.90;;;;;;4972252;28;20558;-88
2022/10/14 10:35:58;;;;;;;4.18;2.50;;;16.50;99.90;;;;;;4968528;28;20055;-89
2022/10/14 10:38:29;;;;;;;4.35;2.35;;;16.50;99.90;;;;;;4962265;28;20072;-89
2022/10/14 10:41:01;;;;;;;;;;;16.50;99.90;;;;;;4965511;28;20060;-88
2022/10/14 10:43:38;;;;;;;6.25;2.53;;;16.50;99.90;;;;;;4968643;28;19957;-88
2022/10/14 10:46:14;;;;;;;4.55;2.80;;;16.50;99.90;;;;;;4970161;28;20061;-88
2022/10/14 10:48:46;;;;;;;4.28;2.50;;;16.50;99.90;;;;;;4968349;28;20039;-89
2022/10/14 10:51:22;;;;;;;4.43;2.55;;;16.50;99.90;;;;;;4958372;28;20097;-89
2022/10/14 10:54:03;;;;;;;6.68;2.72;;;16.60;99.90;;;;;;4969519;28;20046;-89
2022/10/14 10:56:33;;;;;;;4.55;2.58;;;16.50;99.90;;;;;;4967603;28;20403;-89
2022/10/14 10:59:15;;;;;;;4.78;2.22;;;16.60;99.90;;;;;;4969463;28;20121;-89
2022/10/14 11:01:49;;;;;;;5.63;2.78;;;16.60;99.90;;;;;;4967302;28;20131;-88
2022/10/14 11:04:26;;;;;;;4.18;2.58;;;16.60;99.90;;;;;;4972509;28;20047;-88
2022/10/14 11:12:46;;;;;;;4.65;2.58;;;16.60;99.90;;;;;;4971394;28;20047;-88
2022/10/14 11:15:25;;;;;;;4.65;2.72;;;16.60;99.90;;;;;;4970782;28;20503;-89
2022/10/14 11:17:58;;;;;;;4.80;2.85;;;16.60;99.90;;;;;;4969857;28;20047;-88
2022/10/14 11:20:35;;;;;;;4.90;2.78;;;16.60;99.90;;;;;;4972393;28;20146;-88
2022/10/14 11:23:14;;;;;;;4.60;2.60;;;16.60;99.90;;;;;;4971494;28;20141;-89
2022/10/14 11:25:48;;;;;;;5.38;3.55;;;16.60;99.90;;;;;;4973972;28;20579;-87
2022/10/14 11:28:22;;;;;;;5.05;3.15;;;16.60;99.90;;;;;;4972325;28;20048;-88
2022/10/14 11:30:56;;;;;;;5.43;3.40;;;16.60;99.90;;;;;;4971543;28;20051;-88
2022/10/14 11:33:31;;;;;;;7.00;3.65;;;16.60;99.90;;;;;;4984400;28;20047;-88
2022/10/14 11:36:07;;;;;;;8.55;3.78;;;16.60;99.90;;;;;;4967415;28;20050;-88
2022/10/14 11:38:48;;;;;;;6.45;3.85;;;16.60;99.90;;;;;;4958013;28;20047;-88
2022/10/14 11:41:23;;;;;;;6.40;4.10;;;16.60;99.90;;;;;;4968265;28;20049;-88
2022/10/14 11:43:55;;;;;;;6.68;4.20;;;16.60;99.90;;;;;;4971140;28;20061;-89
2022/10/14 11:46:23;;;;;;;7.22;4.10;;;16.60;99.90;;;;;;4973874;28;20055;-88
2022/10/14 11:48:52;;;;;;;9.20;4.38;;;16.70;99.90;;;;;;4972552;28;20050;-83
2022/10/14 11:51:23;;;;;;;8.95;4.93;;;16.70;99.90;;;;;;4964316;28;20045;-88
2022/10/14 11:53:57;;;;;;;6.88;4.50;;;16.70;99.90;;;;;;4969582;28;20065;-89
2022/10/14 11:56:43;;;;;;;8.65;5.35;;;16.70;99.90;;;;;;4960466;28;20101;-89
2022/10/14 11:59:33;;;;;;;11.38;5.47;;;16.60;99.90;;;;;;4963448;28;20571;-89
2022/10/14 12:02:16;;;;;;;9.73;5.85;;;16.70;99.90;;;;;;4970796;28;20134;-89
2022/10/14 12:04:49;;;;;;;10.30;6.18;;;16.70;99.90;;;;;;4963867;28;20141;-89
2022/10/14 12:07:18;;;;;;;10.43;6.35;;;16.70;99.90;;;;;;4971476;28;20070;-88
2022/10/14 12:09:53;;;;;;;10.85;6.25;;;16.70;99.90;;;;;;4965016;28;20039;-88
2022/10/14 12:12:22;;;;;;;10.82;6.53;;;16.70;99.90;;;;;;4969629;28;20058;-88
2022/10/14 12:14:51;;;;;;;13.00;6.95;;;16.70;99.90;;;;;;4967829;28;20125;-89
2022/10/14 12:17:21;;;;;;;19.00;7.05;;;16.70;99.90;;;;;;4964916;28;20576;-89
2022/10/14 12:19:50;;;;;;;13.77;7.43;;;16.70;99.90;;;;;;4963577;28;20053;-89
2022/10/14 12:22:19;;;;;;;11.35;7.35;;;16.70;99.90;;;;;;4963924;28;20071;-89
2022/10/14 12:27:37;;;;;;;17.70;7.93;;;16.60;99.90;;;;;;4937474;28;20043;-78
2022/10/14 12:30:04;;;;;;;12.63;7.38;;;16.60;99.90;;;;;;4947879;28;20047;-78
2022/10/14 12:32:32;;;;;;;16.38;7.97;;;16.70;99.90;;;;;;4944532;28;20048;-78
2022/10/14 12:35:01;;;;;;;18.30;8.50;;;16.70;99.90;;;;;;4946106;29;20054;-77
2022/10/14 12:37:49;;;;;;;11.50;6.85;;;16.70;99.90;;;;;;4943189;28;20122;-77
2022/10/14 12:40:26;;;;;;;12.43;7.60;;;16.70;99.90;;;;;;4944106;28;20385;-78
2022/10/14 12:42:58;;;;;;;12.73;7.20;;;16.70;99.90;;;;;;4945211;28;20043;-78
2022/10/14 12:45:27;;;;;;;14.15;7.43;;;16.70;99.90;;;;;;4943820;28;20047;-78
2022/10/14 12:48:13;;;;;;;10.77;7.18;;;16.70;99.90;;;;;;4945753;28;20511;-77
2022/10/14 12:50:40;;;;;;;11.25;6.78;;;16.70;99.90;;;;;;4947264;28;20044;-77
2022/10/14 12:53:14;;;;;;;10.75;6.93;;;16.70;99.90;;;;;;4944556;29;20039;-77
2022/10/14 12:55:48;;;;;;;15.65;7.28;;;16.70;99.90;;;;;;4947776;28;20039;-77
2022/10/14 12:58:26;;;;;;;11.13;6.72;;;16.70;99.90;;;;;;4950602;28;20047;-77
2022/10/14 13:00:55;;;;;;;12.60;6.75;;;16.70;99.90;;;;;;4947942;28;20535;-77
2022/10/14 13:03:26;;;;;;;12.68;6.82;;;16.70;99.90;;;;;;4945698;28;20047;-77